sensor_id;sensor_type;location;lat;lon;timestamp;pressure;altitude;pressure_sealevel;temperature;humidity
49943;BME280;36011;53.362;58.948;2022-09-28T00:02:56;97449.53;;;0.50;68.11
49943;BME280;36011;53.362;58.948;2022-09-28T00:06:06;97438.28;;;0.53;67.06
49943;BME280;36011;53.362;58.948;2022-09-28T00:09:08;97443.56;;;0.45;67.27
49943;BME280;36011;53.362;58.948;2022-09-28T00:12:09;97434.22;;;0.36;67.30
49943;BME280;36011;53.362;58.948;2022-09-28T00:15:11;97439.44;;;0.33;66.96
49943;BME280;36011;53.362;58.948;2022-09-28T00:18:16;97441.22;;;0.31;67.16
49943;BME280;36011;53.362;58.948;2022-09-28T00:21:21;97439.50;;;0.30;67.29
49943;BME280;36011;53.362;58.948;2022-09-28T00:24:22;97451.59;;;0.30;67.27
49943;BME280;36011;53.362;58.948;2022-09-28T00:27:24;97458.50;;;0.29;67.19
49943;BME280;36011;53.362;58.948;2022-09-28T00:30:25;97457.59;;;0.32;67.39
49943;BME280;36011;53.362;58.948;2022-09-28T00:33:27;97463.63;;;0.32;67.25
49943;BME280;36011;53.362;58.948;2022-09-28T00:36:32;97467.06;;;0.33;66.75
49943;BME280;36011;53.362;58.948;2022-09-28T00:39:34;97468.72;;;0.38;67.13
49943;BME280;36011;53.362;58.948;2022-09-28T00:42:39;97463.59;;;0.34;67.27
49943;BME280;36011;53.362;58.948;2022-09-28T00:46:01;97463.59;;;0.35;67.57
49943;BME280;36011;53.362;58.948;2022-09-28T00:49:08;97444.88;;;0.18;67.14
49943;BME280;36011;53.362;58.948;2022-09-28T00:52:20;97455.97;;;0.26;67.69
49943;BME280;36011;53.362;58.948;2022-09-28T00:58:50;97472.28;;;0.31;68.10
49943;BME280;36011;53.362;58.948;2022-09-28T01:01:51;97476.56;;;0.32;67.47
49943;BME280;36011;53.362;58.948;2022-09-28T01:04:55;97475.81;;;0.24;67.91
49943;BME280;36011;53.362;58.948;2022-09-28T01:07:57;97472.53;;;0.14;68.14
49943;BME280;36011;53.362;58.948;2022-09-28T01:11:04;97473.38;;;0.15;68.77
49943;BME280;36011;53.362;58.948;2022-09-28T01:14:08;97472.44;;;0.19;68.73
49943;BME280;36011;53.362;58.948;2022-09-28T01:17:24;97470.69;;;0.21;68.79
49943;BME280;36011;53.362;58.948;2022-09-28T01:27:31;97476.97;;;0.05;69.30
49943;BME280;36011;53.362;58.948;2022-09-28T01:34:40;97481.28;;;0.03;69.70
49943;BME280;36011;53.362;58.948;2022-09-28T01:38:07;97480.38;;;0.05;69.63
49943;BME280;36011;53.362;58.948;2022-09-28T01:41:11;97470.94;;;0.04;69.62
49943;BME280;36011;53.362;58.948;2022-09-28T01:44:18;97478.66;;;0.06;69.67
49943;BME280;36011;53.362;58.948;2022-09-28T01:47:25;97466.59;;;0.06;70.04
49943;BME280;36011;53.362;58.948;2022-09-28T01:50:37;97470.00;;;0.10;69.52
49943;BME280;36011;53.362;58.948;2022-09-28T01:53:43;97476.16;;;-0.01;69.84
49943;BME280;36011;53.362;58.948;2022-09-28T01:57:15;97477.84;;;0.04;69.99
49943;BME280;36011;53.362;58.948;2022-09-28T02:00:24;97489.00;;;0.06;69.83
49943;BME280;36011;53.362;58.948;2022-09-28T02:03:37;97487.31;;;0.05;70.15
49943;BME280;36011;53.362;58.948;2022-09-28T02:06:51;97500.25;;;0.05;70.17
49943;BME280;36011;53.362;58.948;2022-09-28T02:10:12;97492.44;;;0.08;70.28
49943;BME280;36011;53.362;58.948;2022-09-28T02:13:36;97498.50;;;0.07;70.50
49943;BME280;36011;53.362;58.948;2022-09-28T02:16:46;97501.88;;;0.12;70.57
49943;BME280;36011;53.362;58.948;2022-09-28T02:19:51;97495.81;;;0.13;70.23
49943;BME280;36011;53.362;58.948;2022-09-28T02:22:54;97507.06;;;0.12;69.84
49943;BME280;36011;53.362;58.948;2022-09-28T02:26:05;97506.97;;;0.18;70.69
49943;BME280;36011;53.362;58.948;2022-09-28T02:29:09;97503.44;;;0.22;70.60
49943;BME280;36011;53.362;58.948;2022-09-28T02:32:13;97498.19;;;0.28;70.53
49943;BME280;36011;53.362;58.948;2022-09-28T02:35:20;97509.47;;;0.26;69.79
49943;BME280;36011;53.362;58.948;2022-09-28T02:38:25;97501.78;;;0.18;70.19
49943;BME280;36011;53.362;58.948;2022-09-28T02:41:45;97508.66;;;0.19;70.31
49943;BME280;36011;53.362;58.948;2022-09-28T02:45:45;97521.56;;;0.24;70.23
49943;BME280;36011;53.362;58.948;2022-09-28T02:48:58;97519.91;;;0.18;70.55
49943;BME280;36011;53.362;58.948;2022-09-28T02:52:21;97519.06;;;0.16;70.42
49943;BME280;36011;53.362;58.948;2022-09-28T02:55:30;97524.28;;;0.13;70.69
49943;BME280;36011;53.362;58.948;2022-09-28T02:58:41;97518.13;;;0.21;70.19
49943;BME280;36011;53.362;58.948;2022-09-28T03:12:01;97537.94;;;0.24;70.10
49943;BME280;36011;53.362;58.948;2022-09-28T03:18:10;97533.66;;;0.23;70.27
49943;BME280;36011;53.362;58.948;2022-09-28T03:21:14;97546.56;;;0.26;70.42
49943;BME280;36011;53.362;58.948;2022-09-28T03:24:16;97550.81;;;0.30;70.21
49943;BME280;36011;53.362;58.948;2022-09-28T03:27:17;97546.47;;;0.32;70.50
49943;BME280;36011;53.362;58.948;2022-09-28T03:30:21;97543.00;;;0.33;70.19
49943;BME280;36011;53.362;58.948;2022-09-28T03:33:25;97535.25;;;0.32;70.06
49943;BME280;36011;53.362;58.948;2022-09-28T03:36:26;97547.19;;;0.43;70.11
49943;BME280;36011;53.362;58.948;2022-09-28T03:39:28;97538.59;;;0.40;70.06
49943;BME280;36011;53.362;58.948;2022-09-28T03:42:29;97548.75;;;0.54;70.61
49943;BME280;36011;53.362;58.948;2022-09-28T03:45:33;97539.97;;;0.65;69.78
49943;BME280;36011;53.362;58.948;2022-09-28T03:48:39;97535.50;;;0.75;69.76
49943;BME280;36011;53.362;58.948;2022-09-28T03:51:45;97537.16;;;0.79;69.58
49943;BME280;36011;53.362;58.948;2022-09-28T03:54:47;97547.31;;;0.92;69.65
49943;BME280;36011;53.362;58.948;2022-09-28T03:57:56;97548.16;;;0.94;68.98
49943;BME280;36011;53.362;58.948;2022-09-28T04:01:02;97560.22;;;0.95;68.88
49943;BME280;36011;53.362;58.948;2022-09-28T04:04:12;97564.69;;;0.86;69.16
49943;BME280;36011;53.362;58.948;2022-09-28T04:07:16;97566.38;;;0.87;69.05
49943;BME280;36011;53.362;58.948;2022-09-28T04:10:18;97562.84;;;0.93;69.14
49943;BME280;36011;53.362;58.948;2022-09-28T04:13:22;97551.50;;;1.00;69.43
49943;BME280;36011;53.362;58.948;2022-09-28T04:16:23;97570.28;;;1.15;69.03
49943;BME280;36011;53.362;58.948;2022-09-28T04:19:25;97559.81;;;1.21;68.32
49943;BME280;36011;53.362;58.948;2022-09-28T04:22:30;97568.66;;;1.09;68.92
49943;BME280;36011;53.362;58.948;2022-09-28T04:25:34;97577.16;;;1.17;69.28
49943;BME280;36011;53.362;58.948;2022-09-28T04:28:39;97572.69;;;1.25;68.79
49943;BME280;36011;53.362;58.948;2022-09-28T04:31:58;97581.16;;;1.37;68.62
49943;BME280;36011;53.362;58.948;2022-09-28T04:35:03;97578.38;;;1.47;69.06
49943;BME280;36011;53.362;58.948;2022-09-28T04:38:07;97582.63;;;1.50;68.21
49943;BME280;36011;53.362;58.948;2022-09-28T04:41:08;97578.28;;;1.52;68.20
49943;BME280;36011;53.362;58.948;2022-09-28T04:44:12;97583.25;;;1.64;68.06
49943;BME280;36011;53.362;58.948;2022-09-28T04:47:13;97583.91;;;1.75;67.61
49943;BME280;36011;53.362;58.948;2022-09-28T04:50:15;97588.22;;;1.76;67.79
49943;BME280;36011;53.362;58.948;2022-09-28T04:53:16;97587.50;;;1.68;67.36
49943;BME280;36011;53.362;58.948;2022-09-28T04:56:21;97589.28;;;1.66;67.41
49943;BME280;36011;53.362;58.948;2022-09-28T04:59:27;97585.81;;;1.67;68.02
49943;BME280;36011;53.362;58.948;2022-09-28T05:02:28;97593.38;;;1.78;67.19
49943;BME280;36011;53.362;58.948;2022-09-28T05:05:29;97589.22;;;1.69;66.98
49943;BME280;36011;53.362;58.948;2022-09-28T05:08:34;97588.47;;;1.63;67.41
49943;BME280;36011;53.362;58.948;2022-09-28T05:11:36;97584.97;;;1.65;67.52
49943;BME280;36011;53.362;58.948;2022-09-28T05:14:39;97595.97;;;1.79;67.73
49943;BME280;36011;53.362;58.948;2022-09-28T05:17:41;97585.47;;;1.86;67.62
49943;BME280;36011;53.362;58.948;2022-09-28T05:20:44;97590.59;;;1.89;67.06
49943;BME280;36011;53.362;58.948;2022-09-28T05:23:49;97589.00;;;1.82;67.56
49943;BME280;36011;53.362;58.948;2022-09-28T05:26:55;97589.78;;;1.85;67.36
49943;BME280;36011;53.362;58.948;2022-09-28T05:29:56;97587.06;;;1.93;67.19
49943;BME280;36011;53.362;58.948;2022-09-28T05:33:02;97587.97;;;1.90;67.38
49943;BME280;36011;53.362;58.948;2022-09-28T05:36:07;97590.53;;;1.92;66.57
49943;BME280;36011;53.362;58.948;2022-09-28T05:39:09;97585.81;;;1.67;66.42
49943;BME280;36011;53.362;58.948;2022-09-28T05:42:11;97587.75;;;1.56;66.82
49943;BME280;36011;53.362;58.948;2022-09-28T05:45:15;97584.25;;;1.55;66.87
49943;BME280;36011;53.362;58.948;2022-09-28T05:48:17;97597.38;;;1.48;67.60
49943;BME280;36011;53.362;58.948;2022-09-28T05:51:19;97590.19;;;1.64;66.95
49943;BME280;36011;53.362;58.948;2022-09-28T05:54:23;97587.19;;;1.37;67.76
49943;BME280;36011;53.362;58.948;2022-09-28T05:57:24;97591.38;;;1.46;68.05
49943;BME280;36011;53.362;58.948;2022-09-28T06:00:27;97594.75;;;1.51;67.99
49943;BME280;36011;53.362;58.948;2022-09-28T06:03:29;97597.09;;;1.65;68.19
49943;BME280;36011;53.362;58.948;2022-09-28T06:06:31;97595.22;;;1.71;67.79
49943;BME280;36011;53.362;58.948;2022-09-28T06:09:32;97594.47;;;1.66;67.45
49943;BME280;36011;53.362;58.948;2022-09-28T06:12:33;97595.28;;;1.68;67.97
49943;BME280;36011;53.362;58.948;2022-09-28T06:15:35;97594.06;;;1.88;67.33
49943;BME280;36011;53.362;58.948;2022-09-28T06:18:37;97595.03;;;1.82;67.11
49943;BME280;36011;53.362;58.948;2022-09-28T06:21:46;97589.88;;;1.80;67.75
49943;BME280;36011;53.362;58.948;2022-09-28T06:24:47;97598.16;;;2.01;67.29
49943;BME280;36011;53.362;58.948;2022-09-28T06:27:55;97591.88;;;2.11;67.03
49943;BME280;36011;53.362;58.948;2022-09-28T06:30:59;97589.28;;;2.13;67.12
49943;BME280;36011;53.362;58.948;2022-09-28T06:34:05;97562.69;;;2.00;67.13
49943;BME280;36011;53.362;58.948;2022-09-28T06:37:09;97589.88;;;2.25;67.44
49943;BME280;36011;53.362;58.948;2022-09-28T06:40:16;97582.78;;;2.34;67.01
49943;BME280;36011;53.362;58.948;2022-09-28T06:43:21;97594.69;;;2.44;66.84
49943;BME280;36011;53.362;58.948;2022-09-28T06:46:22;97592.06;;;2.45;67.04
49943;BME280;36011;53.362;58.948;2022-09-28T06:49:24;97596.13;;;2.57;66.59
49943;BME280;36011;53.362;58.948;2022-09-28T06:52:32;97587.47;;;2.58;66.81
49943;BME280;36011;53.362;58.948;2022-09-28T06:55:46;97591.00;;;2.54;67.13
49943;BME280;36011;53.362;58.948;2022-09-28T06:58:52;97585.41;;;2.73;66.80
49943;BME280;36011;53.362;58.948;2022-09-28T07:01:55;97574.41;;;3.00;66.85
49943;BME280;36011;53.362;58.948;2022-09-28T07:04:56;97586.63;;;3.31;66.40
49943;BME280;36011;53.362;58.948;2022-09-28T07:07:59;97590.03;;;3.69;65.82
49943;BME280;36011;53.362;58.948;2022-09-28T07:11:05;97591.09;;;3.94;65.04
49943;BME280;36011;53.362;58.948;2022-09-28T07:14:10;97587.00;;;4.17;64.05
49943;BME280;36011;53.362;58.948;2022-09-28T07:17:12;97584.50;;;4.43;61.18
49943;BME280;36011;53.362;58.948;2022-09-28T07:20:16;97585.75;;;4.30;62.01
49943;BME280;36011;53.362;58.948;2022-09-28T07:23:18;97587.47;;;4.31;62.35
49943;BME280;36011;53.362;58.948;2022-09-28T07:26:22;97593.50;;;4.33;60.66
49943;BME280;36011;53.362;58.948;2022-09-28T07:29:28;97585.47;;;4.10;62.24
49943;BME280;36011;53.362;58.948;2022-09-28T07:32:29;97586.00;;;4.22;62.45
49943;BME280;36011;53.362;58.948;2022-09-28T07:35:32;97589.91;;;4.37;62.28
49943;BME280;36011;53.362;58.948;2022-09-28T07:38:39;97591.75;;;4.63;61.42
49943;BME280;36011;53.362;58.948;2022-09-28T07:41:43;97588.19;;;4.95;59.19
49943;BME280;36011;53.362;58.948;2022-09-28T07:44:45;97589.69;;;5.03;58.47
49943;BME280;36011;53.362;58.948;2022-09-28T07:47:53;97585.28;;;5.05;57.41
49943;BME280;36011;53.362;58.948;2022-09-28T07:50:55;97580.91;;;4.77;59.46
49943;BME280;36011;53.362;58.948;2022-09-28T07:53:57;97579.16;;;4.78;59.20
49943;BME280;36011;53.362;58.948;2022-09-28T07:57:01;97583.44;;;4.50;60.26
49943;BME280;36011;53.362;58.948;2022-09-28T08:00:04;97589.63;;;4.46;60.57
49943;BME280;36011;53.362;58.948;2022-09-28T08:03:08;97582.16;;;4.64;60.30
49943;BME280;36011;53.362;58.948;2022-09-28T08:06:10;97587.88;;;5.05;58.96
49943;BME280;36011;53.362;58.948;2022-09-28T08:09:15;97584.63;;;5.25;58.40
49943;BME280;36011;53.362;58.948;2022-09-28T08:12:16;97585.88;;;5.13;58.53
49943;BME280;36011;53.362;58.948;2022-09-28T08:15:22;97585.69;;;5.19;58.85
49943;BME280;36011;53.362;58.948;2022-09-28T08:18:24;97577.13;;;5.15;58.64
49943;BME280;36011;53.362;58.948;2022-09-28T08:21:31;97575.06;;;5.25;58.94
49943;BME280;36011;53.362;58.948;2022-09-28T08:24:50;97583.78;;;5.51;58.60
49943;BME280;36011;53.362;58.948;2022-09-28T08:27:56;97583.84;;;5.74;57.34
49943;BME280;36011;53.362;58.948;2022-09-28T08:31:03;97587.03;;;5.84;57.25
49943;BME280;36011;53.362;58.948;2022-09-28T08:34:07;97586.94;;;5.85;56.04
49943;BME280;36011;53.362;58.948;2022-09-28T08:37:08;97586.28;;;5.54;56.52
49943;BME280;36011;53.362;58.948;2022-09-28T08:40:17;97579.72;;;5.15;58.20
49943;BME280;36011;53.362;58.948;2022-09-28T08:46:52;97576.66;;;5.29;57.73
49943;BME280;36011;53.362;58.948;2022-09-28T08:49:56;97583.38;;;5.36;57.59
49943;BME280;36011;53.362;58.948;2022-09-28T08:53:22;97579.03;;;5.09;58.00
49943;BME280;36011;53.362;58.948;2022-09-28T08:56:30;97568.94;;;4.98;57.94
49943;BME280;36011;53.362;58.948;2022-09-28T08:59:55;97573.72;;;4.84;59.03
49943;BME280;36011;53.362;58.948;2022-09-28T09:02:57;97585.16;;;4.81;58.73
49943;BME280;36011;53.362;58.948;2022-09-28T09:09:42;97596.28;;;4.57;59.08
49943;BME280;36011;53.362;58.948;2022-09-28T09:16:32;97599.78;;;4.56;59.84
49943;BME280;36011;53.362;58.948;2022-09-28T09:19:52;97602.16;;;4.63;59.27
49943;BME280;36011;53.362;58.948;2022-09-28T09:23:04;97597.25;;;4.53;58.97
49943;BME280;36011;53.362;58.948;2022-09-28T09:26:20;97589.22;;;4.31;60.30
49943;BME280;36011;53.362;58.948;2022-09-28T09:32:53;97586.09;;;4.18;60.84
49943;BME280;36011;53.362;58.948;2022-09-28T09:46:35;97577.13;;;4.58;59.86
49943;BME280;36011;53.362;58.948;2022-09-28T09:49:58;97573.28;;;4.71;59.38
49943;BME280;36011;53.362;58.948;2022-09-28T09:53:16;97577.31;;;4.81;59.15
49943;BME280;36011;53.362;58.948;2022-09-28T09:56:29;97587.97;;;4.73;59.32
49943;BME280;36011;53.362;58.948;2022-09-28T09:59:40;97583.78;;;4.68;59.37
49943;BME280;36011;53.362;58.948;2022-09-28T10:02:47;97582.22;;;4.33;60.60
49943;BME280;36011;53.362;58.948;2022-09-28T10:05:58;97585.13;;;4.53;60.83
49943;BME280;36011;53.362;58.948;2022-09-28T10:09:25;97589.19;;;4.62;60.25
49943;BME280;36011;53.362;58.948;2022-09-28T10:12:30;97591.34;;;4.47;59.87
49943;BME280;36011;53.362;58.948;2022-09-28T10:15:37;97592.94;;;4.22;60.65
49943;BME280;36011;53.362;58.948;2022-09-28T10:18:42;97591.97;;;3.93;61.67
49943;BME280;36011;53.362;58.948;2022-09-28T10:21:48;97588.66;;;3.88;61.85
49943;BME280;36011;53.362;58.948;2022-09-28T10:24:54;97598.72;;;3.68;62.81
49943;BME280;36011;53.362;58.948;2022-09-28T10:28:00;97590.28;;;3.59;62.54
49943;BME280;36011;53.362;58.948;2022-09-28T10:31:36;97580.09;;;3.50;63.10
49943;BME280;36011;53.362;58.948;2022-09-28T10:34:40;97585.38;;;3.47;63.37
49943;BME280;36011;53.362;58.948;2022-09-28T10:38:00;97583.59;;;3.49;63.27
49943;BME280;36011;53.362;58.948;2022-09-28T10:41:10;97585.38;;;3.47;63.47
49943;BME280;36011;53.362;58.948;2022-09-28T10:44:16;97585.84;;;3.29;63.63
49943;BME280;36011;53.362;58.948;2022-09-28T10:47:23;97583.50;;;3.18;64.37
49943;BME280;36011;53.362;58.948;2022-09-28T10:50:27;97579.38;;;3.09;64.93
49943;BME280;36011;53.362;58.948;2022-09-28T10:53:29;97593.06;;;3.18;65.20
49943;BME280;36011;53.362;58.948;2022-09-28T10:56:38;97594.66;;;3.23;65.33
49943;BME280;36011;53.362;58.948;2022-09-28T10:59:41;97556.75;;;3.13;65.15
49943;BME280;36011;53.362;58.948;2022-09-28T11:02:45;97578.13;;;3.26;65.09
49943;BME280;36011;53.362;58.948;2022-09-28T11:06:02;97582.72;;;3.14;65.76
49943;BME280;36011;53.362;58.948;2022-09-28T11:09:28;97581.81;;;3.15;65.79
49943;BME280;36011;53.362;58.948;2022-09-28T11:12:44;97589.41;;;2.87;66.56
49943;BME280;36011;53.362;58.948;2022-09-28T11:15:45;97593.81;;;2.84;67.12
49943;BME280;36011;53.362;58.948;2022-09-28T11:18:49;97597.22;;;2.86;67.12
49943;BME280;36011;53.362;58.948;2022-09-28T11:21:54;97590.19;;;2.91;67.12
49943;BME280;36011;53.362;58.948;2022-09-28T11:28:23;97603.00;;;2.99;67.42
49943;BME280;36011;53.362;58.948;2022-09-28T11:31:30;97593.47;;;2.99;67.27
49943;BME280;36011;53.362;58.948;2022-09-28T11:34:42;97600.50;;;2.94;67.69
49943;BME280;36011;53.362;58.948;2022-09-28T11:37:58;97605.16;;;2.81;67.90
49943;BME280;36011;53.362;58.948;2022-09-28T11:41:10;97598.41;;;2.73;67.99
49943;BME280;36011;53.362;58.948;2022-09-28T11:47:41;97596.06;;;2.60;68.37
49943;BME280;36011;53.362;58.948;2022-09-28T11:50:49;97594.34;;;2.59;68.05
49943;BME280;36011;53.362;58.948;2022-09-28T11:53:58;97584.88;;;2.58;68.72
49943;BME280;36011;53.362;58.948;2022-09-28T11:57:08;97590.06;;;2.58;68.58
49943;BME280;36011;53.362;58.948;2022-09-28T12:00:15;97584.09;;;2.53;68.70
49943;BME280;36011;53.362;58.948;2022-09-28T12:03:25;97591.91;;;2.53;69.09
49943;BME280;36011;53.362;58.948;2022-09-28T12:06:37;97589.09;;;2.62;68.75
49943;BME280;36011;53.362;58.948;2022-09-28T12:10:09;97601.22;;;2.63;68.72
49943;BME280;36011;53.362;58.948;2022-09-28T12:13:19;97588.25;;;2.62;68.58
49943;BME280;36011;53.362;58.948;2022-09-28T12:16:28;97596.31;;;2.48;68.98
49943;BME280;36011;53.362;58.948;2022-09-28T12:19:46;97595.63;;;2.41;69.35
49943;BME280;36011;53.362;58.948;2022-09-28T12:29:31;97581.00;;;2.36;69.83
49943;BME280;36011;53.362;58.948;2022-09-28T12:39:06;97585.44;;;2.31;70.01
49943;BME280;36011;53.362;58.948;2022-09-28T12:42:35;97582.91;;;2.28;70.08
49943;BME280;36011;53.362;58.948;2022-09-28T12:45:38;97582.84;;;2.31;70.34
49943;BME280;36011;53.362;58.948;2022-09-28T12:49:10;97581.09;;;2.31;70.65
49943;BME280;36011;53.362;58.948;2022-09-28T13:06:17;97589.88;;;2.25;70.43
49943;BME280;36011;53.362;58.948;2022-09-28T13:09:28;97586.44;;;2.23;70.45
49943;BME280;36011;53.362;58.948;2022-09-28T13:25:59;97590.38;;;2.01;71.53
49943;BME280;36011;53.362;58.948;2022-09-28T13:29:14;97597.25;;;2.02;71.89
49943;BME280;36011;53.362;58.948;2022-09-28T13:32:18;97599.91;;;1.99;71.96
49943;BME280;36011;53.362;58.948;2022-09-28T13:35:22;97605.88;;;2.04;71.61
49943;BME280;36011;53.362;58.948;2022-09-28T13:38:28;97600.75;;;2.01;72.09
49943;BME280;36011;53.362;58.948;2022-09-28T13:41:36;97604.34;;;1.94;72.13
49943;BME280;36011;53.362;58.948;2022-09-28T13:48:19;97616.53;;;1.89;72.21
49943;BME280;36011;53.362;58.948;2022-09-28T13:51:45;97611.47;;;1.81;72.52
49943;BME280;36011;53.362;58.948;2022-09-28T14:01:37;97632.03;;;1.93;72.58
49943;BME280;36011;53.362;58.948;2022-09-28T14:05:02;97623.50;;;1.87;72.77
49943;BME280;36011;53.362;58.948;2022-09-28T14:14:52;97617.75;;;1.71;73.45
49943;BME280;36011;53.362;58.948;2022-09-28T14:18:21;97624.50;;;1.78;73.50
49943;BME280;36011;53.362;58.948;2022-09-28T14:25:28;97626.97;;;1.86;73.50
49943;BME280;36011;53.362;58.948;2022-09-28T14:28:50;97627.03;;;1.84;73.71
49943;BME280;36011;53.362;58.948;2022-09-28T14:32:23;97618.66;;;1.68;74.21
49943;BME280;36011;53.362;58.948;2022-09-28T14:35:38;97625.53;;;1.69;73.96
49943;BME280;36011;53.362;58.948;2022-09-28T14:38:46;97630.59;;;1.75;74.39
49943;BME280;36011;53.362;58.948;2022-09-28T14:42:14;97628.84;;;1.77;74.10
49943;BME280;36011;53.362;58.948;2022-09-28T14:45:18;97638.44;;;1.74;74.21
49943;BME280;36011;53.362;58.948;2022-09-28T14:54:56;97641.03;;;1.72;74.73
49943;BME280;36011;53.362;58.948;2022-09-28T14:57:58;97636.03;;;1.63;74.46
49943;BME280;36011;53.362;58.948;2022-09-28T15:01:11;97641.16;;;1.66;74.47
49943;BME280;36011;53.362;58.948;2022-09-28T15:04:17;97634.31;;;1.62;74.68
49943;BME280;36011;53.362;58.948;2022-09-28T15:10:49;97638.59;;;1.65;74.69
49943;BME280;36011;53.362;58.948;2022-09-28T15:14:05;97637.81;;;1.60;74.50
49943;BME280;36011;53.362;58.948;2022-09-28T15:17:09;97631.91;;;1.51;74.41
49943;BME280;36011;53.362;58.948;2022-09-28T15:20:26;97642.97;;;1.61;74.57
49943;BME280;36011;53.362;58.948;2022-09-28T15:26:37;97634.31;;;1.62;74.61
49943;BME280;36011;53.362;58.948;2022-09-28T15:29:55;97636.84;;;1.65;74.64
49943;BME280;36011;53.362;58.948;2022-09-28T15:32:58;97640.19;;;1.72;74.46
49943;BME280;36011;53.362;58.948;2022-09-28T15:36:27;97646.34;;;1.66;74.90
49943;BME280;36011;53.362;58.948;2022-09-28T15:39:32;97645.38;;;1.73;74.79
49943;BME280;36011;53.362;58.948;2022-09-28T15:42:35;97644.59;;;1.68;74.50
49943;BME280;36011;53.362;58.948;2022-09-28T15:45:40;97641.75;;;1.82;74.45
49943;BME280;36011;53.362;58.948;2022-09-28T15:48:50;97642.94;;;1.63;74.21
49943;BME280;36011;53.362;58.948;2022-09-28T15:51:54;97658.63;;;1.55;74.65
49943;BME280;36011;53.362;58.948;2022-09-28T15:54:58;97656.88;;;1.57;75.00
49943;BME280;36011;53.362;58.948;2022-09-28T15:58:12;97662.00;;;1.60;75.10
49943;BME280;36011;53.362;58.948;2022-09-28T16:01:34;97656.72;;;1.66;74.54
49943;BME280;36011;53.362;58.948;2022-09-28T16:04:50;97663.88;;;1.53;74.56
49943;BME280;36011;53.362;58.948;2022-09-28T16:07:53;97662.00;;;1.60;74.48
49943;BME280;36011;53.362;58.948;2022-09-28T16:14:18;97663.19;;;1.41;75.20
49943;BME280;36011;53.362;58.948;2022-09-28T16:17:29;97671.69;;;1.50;74.97
49943;BME280;36011;53.362;58.948;2022-09-28T16:20:35;97673.41;;;1.51;74.75
49943;BME280;36011;53.362;58.948;2022-09-28T16:23:39;97681.34;;;1.41;74.88
49943;BME280;36011;53.362;58.948;2022-09-28T16:26:43;97673.75;;;1.28;75.14
49943;BME280;36011;53.362;58.948;2022-09-28T16:33:41;97675.56;;;1.25;76.08
49943;BME280;36011;53.362;58.948;2022-09-28T16:36:45;97685.00;;;1.27;76.36
49943;BME280;36011;53.362;58.948;2022-09-28T16:39:52;97693.63;;;1.29;76.23
49943;BME280;36011;53.362;58.948;2022-09-28T16:42:59;97687.66;;;1.23;76.24
49943;BME280;36011;53.362;58.948;2022-09-28T16:46:12;97684.28;;;1.19;76.06
49943;BME280;36011;53.362;58.948;2022-09-28T16:49:15;97695.50;;;1.20;76.19
49943;BME280;36011;53.362;58.948;2022-09-28T16:52:22;97690.47;;;1.09;76.36
49943;BME280;36011;53.362;58.948;2022-09-28T16:55:43;97690.31;;;1.18;76.02
49943;BME280;36011;53.362;58.948;2022-09-28T16:58:47;97688.47;;;1.26;75.25
49943;BME280;36011;53.362;58.948;2022-09-28T17:01:52;97701.72;;;1.08;75.84
49943;BME280;36011;53.362;58.948;2022-09-28T17:05:02;97693.84;;;1.14;76.23
49943;BME280;36011;53.362;58.948;2022-09-28T17:08:07;97684.56;;;0.96;76.07
49943;BME280;36011;53.362;58.948;2022-09-28T17:11:18;97681.84;;;1.08;75.66
49943;BME280;36011;53.362;58.948;2022-09-28T17:14:22;97667.59;;;0.75;76.28
49943;BME280;36011;53.362;58.948;2022-09-28T17:17:26;97671.94;;;0.75;77.27
49943;BME280;36011;53.362;58.948;2022-09-28T17:20:33;97659.88;;;0.72;76.89
49943;BME280;36011;53.362;58.948;2022-09-28T17:23:38;97676.31;;;0.71;77.25
49943;BME280;36011;53.362;58.948;2022-09-28T17:26:40;97672.06;;;0.65;77.16
49943;BME280;36011;53.362;58.948;2022-09-28T17:29:43;97666.19;;;0.51;77.84
49943;BME280;36011;53.362;58.948;2022-09-28T17:32:45;97669.63;;;0.52;78.26
49943;BME280;36011;53.362;58.948;2022-09-28T17:35:55;97667.00;;;0.55;78.10
49943;BME280;36011;53.362;58.948;2022-09-28T17:39:00;97669.56;;;0.58;78.11
49943;BME280;36011;53.362;58.948;2022-09-28T17:42:02;97678.88;;;0.71;77.25
49943;BME280;36011;53.362;58.948;2022-09-28T17:45:03;97672.06;;;0.64;77.51
49943;BME280;36011;53.362;58.948;2022-09-28T17:48:13;97668.41;;;0.80;76.81
49943;BME280;36011;53.362;58.948;2022-09-28T17:51:17;97674.66;;;0.65;77.72
49943;BME280;36011;53.362;58.948;2022-09-28T17:54:19;97674.66;;;0.64;78.08
49943;BME280;36011;53.362;58.948;2022-09-28T17:57:23;97673.72;;;0.70;77.80
49943;BME280;36011;53.362;58.948;2022-09-28T18:00:26;97677.13;;;0.73;77.46
49943;BME280;36011;53.362;58.948;2022-09-28T18:03:33;97673.63;;;0.77;77.75
49943;BME280;36011;53.362;58.948;2022-09-28T18:06:40;97675.25;;;0.84;77.55
49943;BME280;36011;53.362;58.948;2022-09-28T18:09:42;97670.06;;;0.84;77.60
49943;BME280;36011;53.362;58.948;2022-09-28T18:12:44;97671.78;;;0.85;76.71
49943;BME280;36011;53.362;58.948;2022-09-28T18:15:52;97669.97;;;0.92;77.29
49943;BME280;36011;53.362;58.948;2022-09-28T18:18:53;97670.91;;;0.86;76.41
49943;BME280;36011;53.362;58.948;2022-09-28T18:21:57;97673.50;;;0.86;76.77
49943;BME280;36011;53.362;58.948;2022-09-28T18:24:59;97673.41;;;0.93;76.69
49943;BME280;36011;53.362;58.948;2022-09-28T18:28:00;97665.66;;;0.91;76.90
49943;BME280;36011;53.362;58.948;2022-09-28T18:31:12;97667.38;;;0.90;76.82
49943;BME280;36011;53.362;58.948;2022-09-28T18:34:13;97665.66;;;0.91;77.26
49943;BME280;36011;53.362;58.948;2022-09-28T18:37:15;97675.00;;;1.03;76.59
49943;BME280;36011;53.362;58.948;2022-09-28T18:40:17;97673.31;;;1.00;76.56
49943;BME280;36011;53.362;58.948;2022-09-28T18:43:22;97670.75;;;0.97;76.55
49943;BME280;36011;53.362;58.948;2022-09-28T18:46:24;97659.53;;;0.97;76.89
49943;BME280;36011;53.362;58.948;2022-09-28T18:49:29;97662.78;;;1.11;76.33
49943;BME280;36011;53.362;58.948;2022-09-28T18:52:34;97655.13;;;1.02;75.90
49943;BME280;36011;53.362;58.948;2022-09-28T18:55:40;97661.19;;;1.02;76.35